createdAt,value
2023-01-19T00:00:00.782Z,99514.88
2023-01-19T00:02:27.339Z,99514.09
2023-01-19T00:04:53.855Z,99516.63
2023-01-19T00:07:20.436Z,99515.00
2023-01-19T00:09:46.977Z,99515.91
2023-01-19T00:12:13.572Z,99522.00
2023-01-19T00:14:40.165Z,99521.28
2023-01-19T00:17:07.259Z,99522.19
2023-01-19T00:19:33.861Z,99521.50
2023-01-19T00:22:00.449Z,99521.59
2023-01-19T00:24:27.045Z,99524.22
2023-01-19T00:26:53.514Z,99531.91
2023-01-19T00:29:24.048Z,99527.84
2023-01-19T00:31:50.728Z,99523.78
2023-01-19T00:34:17.368Z,99529.91
2023-01-19T00:36:43.942Z,99525.00
2023-01-19T00:39:10.530Z,99525.19
2023-01-19T00:41:55.560Z,99525.38
2023-01-19T00:44:22.123Z,99528.94
2023-01-19T00:46:48.661Z,99524.84
2023-01-19T00:49:15.187Z,99521.69
2023-01-19T00:51:41.819Z,99524.41
2023-01-19T00:54:10.373Z,99529.63
2023-01-19T00:56:37.547Z,99527.97
2023-01-19T00:59:05.070Z,99526.44
2023-01-19T01:01:46.205Z,99524.81
2023-01-19T01:04:13.614Z,99527.34
2023-01-19T01:06:40.201Z,99531.63
2023-01-19T01:09:11.934Z,99527.34
2023-01-19T01:11:42.898Z,99529.88
2023-01-19T01:14:13.161Z,99523.19
2023-01-19T01:16:40.246Z,99523.25
2023-01-19T01:19:06.957Z,99531.00
2023-01-19T01:21:34.663Z,99525.19
2023-01-19T01:24:01.999Z,99528.47
2023-01-19T01:26:28.558Z,99524.28
2023-01-19T01:28:55.168Z,99526.00
2023-01-19T01:31:21.716Z,99528.47
2023-01-19T01:33:48.347Z,99532.72
2023-01-19T01:36:14.983Z,99522.56
2023-01-19T01:38:41.830Z,99524.28
2023-01-19T01:41:09.219Z,99515.78
2023-01-19T01:43:46.236Z,99514.94
2023-01-19T01:46:16.287Z,99518.41
2023-01-19T01:49:04.820Z,99523.47
2023-01-19T01:51:37.548Z,99519.31
2023-01-19T01:54:15.619Z,99517.78
2023-01-19T01:56:48.394Z,99520.03
2023-01-19T01:59:25.866Z,99527.56
2023-01-19T02:02:21.538Z,99523.25
2023-01-19T02:04:52.733Z,99525.81
2023-01-19T02:07:45.501Z,99519.81
2023-01-19T02:10:30.309Z,99524.88
2023-01-19T02:13:16.443Z,99521.47
2023-01-19T02:15:42.989Z,99520.72
2023-01-19T02:18:09.521Z,99526.63
2023-01-19T02:20:37.613Z,99517.28
2023-01-19T02:23:08.406Z,99518.09
2023-01-19T02:25:35.113Z,99515.47
2023-01-19T02:28:02.104Z,99517.09
2023-01-19T02:30:28.828Z,99518.63
2023-01-19T02:32:55.458Z,99520.16
2023-01-19T02:35:22.505Z,99516.63
2023-01-19T02:37:49.153Z,99513.16
2023-01-19T02:40:20.151Z,99516.94
2023-01-19T02:42:50.384Z,99511.78
2023-01-19T02:45:20.406Z,99507.41
2023-01-19T02:47:49.341Z,99505.50
2023-01-19T02:50:56.011Z,99503.66
2023-01-19T02:53:40.722Z,99504.28
2023-01-19T02:56:43.881Z,99508.34
2023-01-19T02:59:40.200Z,99500.66
2023-01-19T03:02:34.001Z,99496.19
2023-01-19T03:05:05.049Z,99499.44
2023-01-19T03:08:17.653Z,99492.31
2023-01-19T03:11:06.750Z,99483.59
2023-01-19T03:13:39.545Z,99490.13
2023-01-19T03:16:12.275Z,99491.53
2023-01-19T03:18:42.848Z,99492.25
2023-01-19T03:21:10.393Z,99481.88
2023-01-19T03:23:38.860Z,99484.22
2023-01-19T03:26:08.873Z,99489.31
2023-01-19T03:28:36.443Z,99483.09
2023-01-19T03:31:07.229Z,99493.16
2023-01-19T03:33:37.291Z,99481.38
2023-01-19T03:36:08.926Z,99484.44
2023-01-19T03:38:37.597Z,99480.78
2023-01-19T03:41:11.413Z,99480.47
2023-01-19T03:43:39.247Z,99488.69
2023-01-19T03:46:06.420Z,99488.50
2023-01-19T03:48:33.771Z,99489.13
2023-01-19T03:51:08.059Z,99489.13
2023-01-19T03:53:34.799Z,99498.28
2023-01-19T03:56:01.510Z,99493.19
2023-01-19T03:58:28.542Z,99496.44
2023-01-19T04:00:55.199Z,99494.81
2023-01-19T04:03:21.851Z,99494.81
2023-01-19T04:05:48.411Z,99490.75
2023-01-19T04:08:15.171Z,99497.53
2023-01-19T04:10:41.782Z,99504.38
2023-01-19T04:13:08.589Z,99504.38
2023-01-19T04:15:35.222Z,99497.75
2023-01-19T04:18:01.947Z,99499.47
2023-01-19T04:20:28.912Z,99501.09
2023-01-19T04:22:59.559Z,99518.00
2023-01-19T04:25:26.702Z,99519.53
2023-01-19T04:27:55.081Z,99516.69
2023-01-19T04:30:22.673Z,99513.91
2023-01-19T04:32:49.389Z,99515.16
2023-01-19T04:35:17.036Z,99518.22
2023-01-19T04:37:45.035Z,99517.66
2023-01-19T04:40:12.001Z,99516.38
2023-01-19T04:42:38.538Z,99515.03
2023-01-19T04:45:05.293Z,99524.69
2023-01-19T04:47:31.877Z,99511.63
2023-01-19T04:49:58.433Z,99510.28
2023-01-19T04:52:25.718Z,99510.00
2023-01-19T04:54:52.824Z,99503.66
2023-01-19T04:57:19.551Z,99504.97
2023-01-19T04:59:46.107Z,99503.81
2023-01-19T05:02:12.698Z,99500.16
2023-01-19T05:04:39.272Z,99491.38
2023-01-19T05:07:05.813Z,99495.31
2023-01-19T05:09:32.492Z,99495.94
2023-01-19T05:11:58.990Z,99492.47
2023-01-19T05:14:25.582Z,99501.31
2023-01-19T05:16:52.134Z,99498.66
2023-01-19T05:19:18.747Z,99498.41
2023-01-19T05:21:45.331Z,99498.22
2023-01-19T05:24:11.812Z,99500.53
2023-01-19T05:26:38.779Z,99492.00
2023-01-19T05:29:05.539Z,99490.03
2023-01-19T05:31:32.239Z,99494.09
2023-01-19T05:33:58.843Z,99498.16
2023-01-19T05:36:25.458Z,99490.53
2023-01-19T05:38:52.261Z,99499.69
2023-01-19T05:41:21.695Z,99493.66
2023-01-19T05:43:48.259Z,99491.81
2023-01-19T05:46:14.912Z,99498.50
2023-01-19T05:48:41.538Z,99498.50
2023-01-19T05:51:08.545Z,99495.88
2023-01-19T05:53:35.108Z,99493.31
2023-01-19T05:56:08.506Z,99489.84
2023-01-19T05:58:36.485Z,99493.22
2023-01-19T06:01:05.647Z,99495.75
2023-01-19T06:03:33.222Z,99500.03
2023-01-19T06:06:00.451Z,99499.00
2023-01-19T06:08:27.266Z,99507.56
2023-01-19T06:10:53.887Z,99505.84
2023-01-19T06:13:20.655Z,99511.75
2023-01-19T06:15:47.243Z,99502.38
2023-01-19T06:18:16.952Z,99498.06
2023-01-19T06:20:43.522Z,99503.06
2023-01-19T06:23:10.807Z,99496.25
2023-01-19T06:25:37.386Z,99500.50
2023-01-19T06:28:04.119Z,99507.97
2023-01-19T06:30:30.663Z,99503.66
2023-01-19T06:32:57.198Z,99496.00
2023-01-19T06:35:23.779Z,99499.72
2023-01-19T06:37:50.972Z,99502.97
2023-01-19T06:40:17.814Z,99512.03
2023-01-19T06:42:44.335Z,99510.38
2023-01-19T06:45:11.205Z,99508.75
2023-01-19T06:47:37.914Z,99513.75
2023-01-19T06:50:04.783Z,99513.66
2023-01-19T06:52:31.299Z,99514.44
2023-01-19T06:54:57.908Z,99512.72
2023-01-19T06:57:25.899Z,99508.31
2023-01-19T06:59:53.001Z,99509.13
2023-01-19T07:02:26.113Z,99511.69
2023-01-19T07:04:54.587Z,99527.81
2023-01-19T07:07:21.207Z,99526.03
2023-01-19T07:09:48.178Z,99521.78
2023-01-19T07:12:14.810Z,99525.13
2023-01-19T07:14:42.335Z,99527.66
2023-01-19T07:17:08.946Z,99533.59
2023-01-19T07:19:35.829Z,99542.84
2023-01-19T07:22:03.236Z,99535.22
2023-01-19T07:24:34.372Z,99545.31
2023-01-19T07:27:00.996Z,99533.50
2023-01-19T07:29:27.592Z,99539.28
2023-01-19T07:31:54.769Z,99548.53
2023-01-19T07:34:21.587Z,99550.28
2023-01-19T07:36:48.603Z,99547.63
2023-01-19T07:39:15.843Z,99538.44
2023-01-19T07:41:42.404Z,99545.78
2023-01-19T07:44:08.961Z,99544.84
2023-01-19T07:46:35.517Z,99538.03
2023-01-19T07:49:01.994Z,99537.09
2023-01-19T07:51:28.532Z,99545.44
2023-01-19T07:53:55.407Z,99546.28
2023-01-19T07:56:23.408Z,99545.09
2023-01-19T07:58:52.457Z,99551.03
2023-01-19T08:01:19.241Z,99551.84
2023-01-19T08:03:47.789Z,99551.84
2023-01-19T08:06:23.440Z,99559.25
2023-01-19T08:08:50.401Z,99549.88
2023-01-19T08:11:17.050Z,99560.09
2023-01-19T08:13:43.787Z,99561.59
2023-01-19T08:16:10.626Z,99556.50
2023-01-19T08:18:37.315Z,99561.47
2023-01-19T08:21:04.967Z,99566.56
2023-01-19T08:23:31.639Z,99560.78
2023-01-19T08:25:58.334Z,99553.72
2023-01-19T08:28:26.038Z,99562.19
2023-01-19T08:30:55.598Z,99563.72
2023-01-19T08:33:23.362Z,99564.28
2023-01-19T08:35:52.585Z,99565.81
2023-01-19T08:38:19.312Z,99560.59
2023-01-19T08:40:46.105Z,99568.72
2023-01-19T08:43:15.065Z,99570.34
2023-01-19T08:45:48.329Z,99566.97
2023-01-19T08:48:16.986Z,99568.50
2023-01-19T08:50:46.321Z,99564.91
2023-01-19T08:53:12.972Z,99570.69
2023-01-19T08:55:39.940Z,99579.06
2023-01-19T08:58:09.291Z,99571.44
2023-01-19T09:00:39.839Z,99571.06
2023-01-19T09:03:08.103Z,99580.13
2023-01-19T09:05:37.498Z,99574.78
2023-01-19T09:08:06.483Z,99572.25
2023-01-19T09:10:36.141Z,99570.50
2023-01-19T09:13:08.564Z,99573.88
2023-01-19T09:15:37.693Z,99573.88
2023-01-19T09:18:07.021Z,99578.66
2023-01-19T09:20:36.285Z,99570.06
2023-01-19T09:23:03.054Z,99575.16
2023-01-19T09:25:29.860Z,99577.72
2023-01-19T09:27:56.472Z,99574.34
2023-01-19T09:30:23.094Z,99578.06
2023-01-19T09:32:49.711Z,99583.63
2023-01-19T09:35:16.590Z,99587.94
2023-01-19T09:37:47.156Z,99583.41
2023-01-19T09:40:15.863Z,99576.56
2023-01-19T09:42:45.448Z,99586.66
2023-01-19T09:45:48.333Z,99576.56
2023-01-19T09:48:23.979Z,99590.84
2023-01-19T09:50:50.678Z,99586.78
2023-01-19T09:53:32.583Z,99593.59
2023-01-19T09:55:59.335Z,99590.22
2023-01-19T09:58:26.249Z,99588.50
2023-01-19T10:01:01.850Z,99585.13
2023-01-19T10:03:29.085Z,99590.38
2023-01-19T10:05:59.785Z,99586.16
2023-01-19T10:08:43.337Z,99582.81
2023-01-19T10:11:52.037Z,99587.34
2023-01-19T10:14:26.150Z,99581.19
2023-01-19T10:17:05.536Z,99588.84
2023-01-19T10:19:38.334Z,99590.38
2023-01-19T10:22:25.229Z,99583.63
2023-01-19T10:24:55.100Z,99588.72
2023-01-19T10:27:28.946Z,99585.28
2023-01-19T10:29:57.020Z,99583.63
2023-01-19T10:32:44.542Z,99589.53
2023-01-19T10:35:24.754Z,99592.09
2023-01-19T10:37:56.086Z,99585.28
2023-01-19T10:40:51.098Z,99587.09
2023-01-19T10:43:36.593Z,99583.75
2023-01-19T10:46:07.516Z,99587.94
2023-01-19T10:48:42.002Z,99594.66
2023-01-19T10:51:10.515Z,99590.38
2023-01-19T10:53:37.467Z,99581.78
2023-01-19T10:56:13.356Z,99576.44
2023-01-19T10:58:40.603Z,99578.78
2023-01-19T11:01:37.334Z,99573.78
2023-01-19T11:04:25.719Z,99575.88
2023-01-19T11:06:52.345Z,99570.56
2023-01-19T11:09:21.376Z,99565.22
2023-01-19T11:11:52.665Z,99563.94
2023-01-19T11:14:22.983Z,99566.41
2023-01-19T11:16:58.983Z,99562.91
2023-01-19T11:19:28.559Z,99555.72
2023-01-19T11:22:08.104Z,99551.66
2023-01-19T11:24:35.726Z,99556.50
2023-01-19T11:27:03.834Z,99554.88
2023-01-19T11:29:30.569Z,99553.50
2023-01-19T11:32:10.652Z,99556.75
2023-01-19T11:34:38.866Z,99556.75
2023-01-19T11:37:29.841Z,99555.94
2023-01-19T11:39:58.803Z,99561.03
2023-01-19T11:42:28.474Z,99558.38
2023-01-19T11:44:59.255Z,99564.16
2023-01-19T11:47:29.001Z,99558.13
2023-01-19T11:50:06.045Z,99560.00
2023-01-19T11:52:44.904Z,99564.16
2023-01-19T11:55:21.547Z,99557.44
2023-01-19T11:57:50.176Z,99559.16
2023-01-19T12:00:24.147Z,99562.44
2023-01-19T12:02:54.879Z,99554.06
2023-01-19T12:05:22.828Z,99559.78
2023-01-19T12:07:50.043Z,99558.59
2023-01-19T12:10:25.233Z,99548.72
2023-01-19T12:12:52.897Z,99548.38
2023-01-19T12:15:42.244Z,99545.00
2023-01-19T12:18:16.328Z,99534.31
2023-01-19T12:20:49.615Z,99542.53
2023-01-19T12:23:29.226Z,99548.75
2023-01-19T12:26:14.352Z,99546.78
2023-01-19T12:28:43.478Z,99545.03
2023-01-19T12:31:10.507Z,99547.72
2023-01-19T12:33:38.677Z,99538.31
2023-01-19T12:36:34.018Z,99547.97
2023-01-19T12:39:14.138Z,99549.03
2023-01-19T12:41:41.519Z,99545.66
2023-01-19T12:44:16.085Z,99535.06
2023-01-19T12:47:05.317Z,99540.91
2023-01-19T12:49:38.099Z,99541.81
2023-01-19T12:52:17.107Z,99549.47
2023-01-19T12:54:57.534Z,99547.19
2023-01-19T12:57:32.011Z,99542.28
2023-01-19T13:00:01.759Z,99546.50
2023-01-19T13:02:47.361Z,99549.94
2023-01-19T13:05:33.194Z,99549.16
2023-01-19T13:08:03.470Z,99549.16
2023-01-19T13:11:09.648Z,99555.31
2023-01-19T13:13:40.237Z,99552.09
2023-01-19T13:16:19.079Z,99559.75
2023-01-19T13:18:53.796Z,99555.69
2023-01-19T13:21:28.021Z,99542.31
2023-01-19T13:24:01.959Z,99550.91
2023-01-19T13:26:32.236Z,99557.22
2023-01-19T13:29:05.693Z,99554.19
2023-01-19T13:31:40.952Z,99551.63
2023-01-19T13:34:19.604Z,99557.66
2023-01-19T13:36:48.318Z,99556.97
2023-01-19T13:39:20.234Z,99551.06
2023-01-19T13:41:47.338Z,99550.25
2023-01-19T13:44:29.602Z,99547.00
2023-01-19T13:46:56.958Z,99552.09
2023-01-19T13:49:29.428Z,99561.38
2023-01-19T13:52:05.835Z,99563.00
2023-01-19T13:54:32.489Z,99561.38
2023-01-19T13:56:59.428Z,99568.47
2023-01-19T13:59:26.152Z,99570.44
2023-01-19T14:01:54.710Z,99578.09
2023-01-19T14:04:30.260Z,99576.59
2023-01-19T14:06:59.797Z,99567.28
2023-01-19T14:09:26.227Z,99572.41
2023-01-19T14:12:15.706Z,99564.53
2023-01-19T14:14:42.771Z,99567.75
2023-01-19T14:17:27.925Z,99577.97
2023-01-19T14:19:57.355Z,99577.97
2023-01-19T14:22:38.641Z,99580.53
2023-01-19T14:25:31.032Z,99578.09
2023-01-19T14:28:36.037Z,99586.47
2023-01-19T14:31:16.823Z,99585.63
2023-01-19T14:33:47.160Z,99590.75
2023-01-19T14:36:15.111Z,99589.94
2023-01-19T14:38:46.578Z,99589.13
2023-01-19T14:41:24.056Z,99587.50
2023-01-19T14:43:50.667Z,99598.41
2023-01-19T14:46:20.912Z,99592.50
2023-01-19T14:48:48.905Z,99601.78
2023-01-19T14:51:18.988Z,99598.31
2023-01-19T14:53:55.628Z,99599.91
2023-01-19T14:56:31.603Z,99600.75
2023-01-19T14:59:00.336Z,99606.66
2023-01-19T15:01:31.420Z,99610.84
2023-01-19T15:03:58.709Z,99605.75
2023-01-19T15:06:26.331Z,99603.06
2023-01-19T15:08:53.735Z,99615.72
2023-01-19T15:11:32.633Z,99609.66
2023-01-19T15:13:59.965Z,99603.63
2023-01-19T15:16:28.291Z,99607.84
2023-01-19T15:19:48.187Z,99611.06
2023-01-19T15:22:14.953Z,99613.41
2023-01-19T15:24:41.550Z,99609.09
2023-01-19T15:27:12.320Z,99616.41
2023-01-19T15:29:40.580Z,99612.78
2023-01-19T15:32:13.287Z,99618.50
2023-01-19T15:34:40.101Z,99625.94
2023-01-19T15:37:07.099Z,99626.50
2023-01-19T15:39:34.127Z,99625.34
2023-01-19T15:42:00.981Z,99628.59
2023-01-19T15:44:27.508Z,99632.53
2023-01-19T15:46:54.790Z,99625.44
2023-01-19T15:49:21.509Z,99621.84
2023-01-19T15:51:48.168Z,99630.34
2023-01-19T15:54:19.648Z,99632.63
2023-01-19T15:58:15.331Z,99647.88
2023-01-19T16:00:17.265Z,99639.94
2023-01-19T16:02:43.894Z,99655.16
2023-01-19T16:05:11.030Z,99657.63
2023-01-19T16:07:38.269Z,99646.56
2023-01-19T16:10:09.610Z,99658.28
2023-01-19T16:12:36.991Z,99649.72
2023-01-19T16:15:04.086Z,99663.28
2023-01-19T16:17:30.874Z,99666.56
2023-01-19T16:19:57.677Z,99662.50
2023-01-19T16:22:24.362Z,99674.09
2023-01-19T16:24:56.682Z,99673.31
2023-01-19T16:27:24.175Z,99677.38
2023-01-19T16:29:52.182Z,99673.16
2023-01-19T16:32:19.271Z,99678.16
2023-01-19T16:34:46.036Z,99679.00
2023-01-19T16:37:16.377Z,99687.59
2023-01-19T16:39:45.418Z,99686.78
2023-01-19T16:42:13.045Z,99692.72
2023-01-19T16:44:39.790Z,99687.59
2023-01-19T16:47:06.421Z,99695.13
2023-01-19T16:49:33.096Z,99694.22
2023-01-19T16:52:00.124Z,99700.13
2023-01-19T16:54:28.357Z,99704.31
2023-01-19T16:56:56.691Z,99700.00
2023-01-19T16:59:24.550Z,99707.56
2023-01-19T17:01:52.111Z,99712.69
2023-01-19T17:04:20.391Z,99707.56
2023-01-19T17:06:47.208Z,99707.56
2023-01-19T17:09:15.017Z,99710.81
2023-01-19T17:11:42.215Z,99716.75
2023-01-19T17:14:12.797Z,99723.72
2023-01-19T17:16:39.600Z,99718.59
2023-01-19T17:19:07.401Z,99721.16
2023-01-19T17:21:35.113Z,99733.00
2023-01-19T17:24:02.162Z,99725.47
2023-01-19T17:26:46.017Z,99731.63
2023-01-19T17:29:12.723Z,99733.38
2023-01-19T17:31:39.743Z,99733.38
2023-01-19T17:34:07.017Z,99738.59
2023-01-19T17:36:34.311Z,99736.03
2023-01-19T17:39:06.181Z,99747.09
2023-01-19T17:41:35.621Z,99742.81
2023-01-19T17:44:03.656Z,99745.47
2023-01-19T17:46:30.619Z,99747.91
2023-01-19T17:48:59.451Z,99754.66
2023-01-19T17:51:26.948Z,99750.34
2023-01-19T17:54:01.804Z,99750.34
2023-01-19T17:56:30.432Z,99762.22
2023-01-19T17:58:57.837Z,99764.63
2023-01-19T18:01:29.919Z,99767.19
2023-01-19T18:03:57.851Z,99761.28
2023-01-19T18:06:25.005Z,99767.06
2023-01-19T18:08:52.741Z,99770.47
2023-01-19T18:11:20.411Z,99773.94
2023-01-19T18:13:48.500Z,99780.56
2023-01-19T18:16:17.510Z,99784.03
2023-01-19T18:18:44.490Z,99794.06
2023-01-19T18:21:13.126Z,99790.66
2023-01-19T18:23:40.052Z,99783.09
2023-01-19T18:26:08.806Z,99792.28
2023-01-19T18:28:35.790Z,99783.72
2023-01-19T18:31:03.125Z,99791.38
2023-01-19T18:33:31.492Z,99790.56
2023-01-19T18:35:58.102Z,99795.69
2023-01-19T18:38:24.854Z,99794.84
2023-01-19T18:41:05.045Z,99787.19
2023-01-19T18:43:32.525Z,99801.84
2023-01-19T18:45:59.448Z,99798.44
2023-01-19T18:48:26.247Z,99809.63
2023-01-19T18:50:53.428Z,99812.28
2023-01-19T18:53:20.395Z,99820.09
2023-01-19T18:55:55.096Z,99821.94
2023-01-19T18:58:22.314Z,99813.47
2023-01-19T19:00:49.580Z,99812.53
2023-01-19T19:03:17.071Z,99819.38
2023-01-19T19:05:44.012Z,99822.88
2023-01-19T19:08:10.613Z,99826.25
2023-01-19T19:10:37.346Z,99825.31
2023-01-19T19:13:04.144Z,99833.09
2023-01-19T19:15:32.665Z,99833.00
2023-01-19T19:17:59.740Z,99837.16
2023-01-19T19:20:26.529Z,99834.72
2023-01-19T19:22:53.115Z,99837.28
2023-01-19T19:25:19.786Z,99833.09
2023-01-19T19:27:51.022Z,99836.47
2023-01-19T19:30:18.267Z,99837.41
2023-01-19T19:32:45.111Z,99841.50
2023-01-19T19:35:12.579Z,99842.38
2023-01-19T19:37:39.258Z,99848.34
2023-01-19T19:40:06.652Z,99850.88
2023-01-19T19:42:34.596Z,99860.19
2023-01-19T19:45:01.257Z,99860.06
2023-01-19T19:47:30.439Z,99870.31
2023-01-19T19:49:59.158Z,99865.19
2023-01-19T19:52:27.740Z,99876.94
2023-01-19T19:54:54.617Z,99877.88
2023-01-19T19:57:21.205Z,99874.47
2023-01-19T19:59:47.810Z,99878.56
2023-01-19T20:02:14.538Z,99887.97
2023-01-19T20:04:41.347Z,99888.78
2023-01-19T20:07:08.182Z,99887.06
2023-01-19T20:09:36.450Z,99894.72
2023-01-19T20:12:03.447Z,99897.16
2023-01-19T20:14:30.072Z,99904.81
2023-01-19T20:16:56.704Z,99906.47
2023-01-19T20:19:23.369Z,99909.84
2023-01-19T20:21:50.115Z,99908.22
2023-01-19T20:24:18.749Z,99913.22
2023-01-19T20:26:51.840Z,99910.66
2023-01-19T20:29:19.568Z,99917.41
2023-01-19T20:31:51.831Z,99914.84
2023-01-19T20:34:21.898Z,99923.34
2023-01-19T20:36:50.369Z,99925.06
2023-01-19T20:39:19.752Z,99922.50
2023-01-19T20:41:47.455Z,99924.38
2023-01-19T20:44:19.242Z,99930.41
2023-01-19T20:46:46.561Z,99936.34
2023-01-19T20:49:13.456Z,99936.44
2023-01-19T20:51:43.504Z,99952.63
2023-01-19T20:54:11.391Z,99951.78
2023-01-19T20:56:38.202Z,99958.66
2023-01-19T20:59:04.799Z,99967.13
2023-01-19T21:01:31.730Z,99968.06
2023-01-19T21:03:58.621Z,99972.25
2023-01-19T21:06:25.815Z,99965.50
2023-01-19T21:08:52.737Z,99972.25
2023-01-19T21:11:21.103Z,99976.44
2023-01-19T21:13:48.405Z,99973.28
2023-01-19T21:16:15.695Z,99978.31
2023-01-19T21:18:42.497Z,99983.31
2023-01-19T21:21:20.863Z,99986.66
2023-01-19T21:24:00.425Z,99989.22
2023-01-19T21:26:29.835Z,99994.34
2023-01-19T21:28:58.838Z,99996.78
2023-01-19T21:31:27.702Z,100001.91
2023-01-19T21:33:55.143Z,100011.22
2023-01-19T21:36:22.564Z,100010.41
2023-01-19T21:38:51.422Z,100014.59
2023-01-19T21:41:18.600Z,100009.59
2023-01-19T21:43:46.278Z,100023.19
2023-01-19T21:46:17.745Z,100012.13
2023-01-19T21:48:45.858Z,100028.31
2023-01-19T21:51:13.332Z,100032.72
2023-01-19T21:53:40.472Z,100036.91
2023-01-19T21:56:09.452Z,100036.19
2023-01-19T21:58:36.340Z,100042.13
2023-01-19T22:01:05.348Z,100050.59
2023-01-19T22:03:32.322Z,100051.53
2023-01-19T22:06:04.465Z,100059.22
2023-01-19T22:08:31.067Z,100061.78
2023-01-19T22:11:04.962Z,100061.66
2023-01-19T22:13:32.354Z,100053.16
2023-01-19T22:16:03.299Z,100060.03
2023-01-19T22:18:29.940Z,100062.59
2023-01-19T22:20:56.972Z,100065.97
2023-01-19T22:23:23.564Z,100071.06
2023-01-19T22:25:50.203Z,100074.56
2023-01-19T22:28:16.796Z,100077.13
2023-01-19T22:30:43.682Z,100072.94
2023-01-19T22:33:10.340Z,100077.22
2023-01-19T22:35:36.987Z,100088.28
2023-01-19T22:38:03.474Z,100085.72
2023-01-19T22:40:30.036Z,100083.16
2023-01-19T22:42:56.621Z,100087.44
2023-01-19T22:45:23.262Z,100083.38
2023-01-19T22:47:49.841Z,100095.94
2023-01-19T22:50:16.569Z,100100.38
2023-01-19T22:52:43.255Z,100102.94
2023-01-19T22:55:10.061Z,100105.47
2023-01-19T22:57:37.440Z,100104.66
2023-01-19T23:00:08.603Z,100116.63
2023-01-19T23:02:35.250Z,100119.16
2023-01-19T23:05:01.840Z,100129.53
2023-01-19T23:07:28.420Z,100119.41
2023-01-19T23:09:54.967Z,100127.06
2023-01-19T23:12:21.484Z,100128.81
2023-01-19T23:14:48.022Z,100133.91
2023-01-19T23:17:14.674Z,100134.16
2023-01-19T23:19:41.257Z,100134.16
2023-01-19T23:22:07.824Z,100143.56
2023-01-19T23:24:34.458Z,100147.03
2023-01-19T23:27:02.410Z,100145.41
2023-01-19T23:29:28.921Z,100152.25
2023-01-19T23:31:56.293Z,100156.66
2023-01-19T23:34:22.873Z,100163.41
2023-01-19T23:36:49.472Z,100162.72
2023-01-19T23:39:18.474Z,100161.06
2023-01-19T23:41:45.369Z,100161.97
2023-01-19T23:44:11.996Z,100162.81
2023-01-19T23:46:38.681Z,100168.03
2023-01-19T23:49:05.759Z,100170.56
2023-01-19T23:51:33.102Z,100170.56
2023-01-19T23:54:00.276Z,100168.13
2023-01-19T23:56:29.990Z,100165.69
2023-01-19T23:59:04.581Z,100167.66
